createdAt,value
2022-09-12T00:00:48.492Z,14.48
2022-09-12T00:03:16.234Z,14.47
2022-09-12T00:05:44.336Z,14.49
2022-09-12T00:08:12.945Z,14.49
2022-09-12T00:10:43.922Z,14.51
2022-09-12T00:13:12.328Z,14.53
2022-09-12T00:15:40.150Z,14.52
2022-09-12T00:18:09.318Z,14.53
2022-09-12T00:20:37.010Z,14.53
2022-09-12T00:23:04.611Z,14.52
2022-09-12T00:25:32.072Z,14.50
2022-09-12T00:28:00.897Z,14.46
2022-09-12T00:30:28.537Z,14.44
2022-09-12T00:32:56.043Z,14.43
2022-09-12T00:35:23.559Z,14.43
2022-09-12T00:37:51.028Z,14.42
2022-09-12T00:40:18.528Z,14.40
2022-09-12T00:42:46.019Z,14.39
2022-09-12T00:45:24.058Z,14.37
2022-09-12T00:47:51.654Z,14.36
2022-09-12T00:50:19.550Z,14.38
2022-09-12T00:52:51.787Z,14.41
2022-09-12T00:55:23.243Z,14.42
2022-09-12T00:57:54.951Z,14.46
2022-09-12T01:00:26.360Z,14.46
2022-09-12T01:02:58.112Z,14.43
2022-09-12T01:05:29.130Z,14.41
2022-09-12T01:07:57.946Z,14.37
2022-09-12T01:10:25.892Z,14.35
2022-09-12T01:12:53.581Z,14.34
2022-09-12T01:15:21.136Z,14.32
2022-09-12T01:18:03.079Z,14.34
2022-09-12T01:20:47.449Z,14.31
2022-09-12T01:23:44.707Z,14.27
2022-09-12T01:26:39.504Z,14.28
2022-09-12T01:29:26.325Z,14.29
2022-09-12T01:32:01.401Z,14.25
2022-09-12T01:34:40.081Z,14.19
2022-09-12T01:37:15.291Z,14.16
2022-09-12T01:39:53.381Z,14.12
2022-09-12T01:42:27.893Z,14.08
2022-09-12T01:45:03.151Z,14.05
2022-09-12T01:47:40.407Z,14.01
2022-09-12T01:50:11.681Z,14.01
2022-09-12T01:52:45.736Z,14.01
2022-09-12T01:55:19.652Z,13.99
2022-09-12T01:57:53.814Z,13.95
2022-09-12T02:00:21.593Z,13.93
2022-09-12T02:02:54.916Z,13.90
2022-09-12T02:05:29.414Z,13.84
2022-09-12T02:08:03.936Z,13.80
2022-09-12T02:10:34.437Z,13.78
2022-09-12T02:13:09.338Z,13.76
2022-09-12T02:15:40.959Z,13.72
2022-09-12T02:18:15.159Z,13.69
2022-09-12T02:20:48.397Z,13.66
2022-09-12T02:23:20.644Z,13.64
2022-09-12T02:25:52.053Z,13.62
2022-09-12T02:28:24.922Z,13.58
2022-09-12T02:31:00.525Z,13.56
2022-09-12T02:33:38.676Z,13.56
2022-09-12T02:36:14.370Z,13.54
2022-09-12T02:38:45.761Z,13.51
2022-09-12T02:41:16.808Z,13.54
2022-09-12T02:43:44.682Z,13.60
2022-09-12T02:46:17.891Z,13.64
2022-09-12T02:48:46.884Z,13.63
2022-09-12T02:51:14.800Z,13.58
2022-09-12T02:53:43.219Z,13.56
2022-09-12T02:56:18.281Z,13.52
2022-09-12T02:58:46.407Z,13.51
2022-09-12T03:01:28.903Z,13.48
2022-09-12T03:04:23.764Z,13.46
2022-09-12T03:07:02.731Z,13.47
2022-09-12T03:09:38.801Z,13.48
2022-09-12T03:12:17.147Z,13.48
2022-09-12T03:15:07.395Z,13.48
2022-09-12T03:17:48.426Z,13.50
2022-09-12T03:20:29.704Z,13.51
2022-09-12T03:23:01.948Z,13.56
2022-09-12T03:25:33.666Z,13.62
2022-09-12T03:28:07.557Z,13.60
2022-09-12T03:30:39.189Z,13.58
2022-09-12T03:33:07.019Z,13.53
2022-09-12T03:35:35.933Z,13.55
2022-09-12T03:38:03.468Z,13.54
2022-09-12T03:40:30.960Z,13.50
2022-09-12T03:42:58.468Z,13.44
2022-09-12T03:45:26.007Z,13.40
2022-09-12T03:47:53.579Z,13.41
2022-09-12T03:50:21.268Z,13.42
2022-09-12T03:52:50.137Z,13.44
2022-09-12T03:55:18.144Z,13.50
2022-09-12T03:57:45.814Z,13.56
2022-09-12T04:00:19.049Z,13.62
2022-09-12T04:02:47.371Z,13.57
2022-09-12T04:05:14.955Z,13.52
2022-09-12T04:07:42.445Z,13.46
2022-09-12T04:10:11.509Z,13.46
2022-09-12T04:12:39.523Z,13.50
2022-09-12T04:15:08.328Z,13.56
2022-09-12T04:17:36.153Z,13.57
2022-09-12T04:20:03.948Z,13.56
2022-09-12T04:22:32.554Z,13.56
2022-09-12T04:25:00.188Z,13.55
2022-09-12T04:27:29.316Z,13.57
2022-09-12T04:29:57.392Z,13.59
2022-09-12T04:32:24.922Z,13.57
2022-09-12T04:34:53.388Z,13.54
2022-09-12T04:37:21.214Z,13.55
2022-09-12T04:39:49.708Z,13.60
2022-09-12T04:42:17.436Z,13.62
2022-09-12T04:44:46.306Z,13.64
2022-09-12T04:47:13.780Z,13.69
2022-09-12T04:49:41.269Z,13.73
2022-09-12T04:52:09.087Z,13.69
2022-09-12T04:54:36.583Z,13.64
2022-09-12T04:57:04.427Z,13.58
2022-09-12T04:59:31.917Z,13.52
2022-09-12T05:02:00.905Z,13.50
2022-09-12T05:04:28.474Z,13.52
2022-09-12T05:06:55.997Z,13.58
2022-09-12T05:09:23.544Z,13.59
2022-09-12T05:12:06.361Z,13.59
2022-09-12T05:14:34.466Z,13.63
2022-09-12T05:17:05.948Z,13.68
2022-09-12T05:19:33.877Z,13.63
2022-09-12T05:22:01.548Z,13.53
2022-09-12T05:24:29.041Z,13.48
2022-09-12T05:26:56.589Z,13.45
2022-09-12T05:29:25.140Z,13.39
2022-09-12T05:31:53.169Z,13.34
2022-09-12T05:34:22.223Z,13.31
2022-09-12T05:36:49.808Z,13.29
2022-09-12T05:39:18.546Z,13.27
2022-09-12T05:41:47.344Z,13.27
2022-09-12T05:44:15.770Z,13.27
2022-09-12T05:46:44.995Z,13.27
2022-09-12T05:49:14.511Z,13.24
2022-09-12T05:51:45.895Z,13.24
2022-09-12T05:54:15.177Z,13.27
2022-09-12T05:56:44.219Z,13.36
2022-09-12T05:59:14.188Z,13.45
2022-09-12T06:01:41.988Z,13.47
2022-09-12T06:04:10.593Z,13.51
2022-09-12T06:06:41.730Z,13.52
2022-09-12T06:09:10.977Z,13.50
2022-09-12T06:11:41.255Z,13.48
2022-09-12T06:14:10.792Z,13.46
2022-09-12T06:16:38.960Z,13.44
2022-09-12T06:19:08.447Z,13.43
2022-09-12T06:21:37.830Z,13.43
2022-09-12T06:24:05.603Z,13.44
2022-09-12T06:26:35.031Z,13.46
2022-09-12T06:29:03.214Z,13.52
2022-09-12T06:31:33.196Z,13.58
2022-09-12T06:34:02.516Z,13.68
2022-09-12T06:36:32.026Z,13.78
2022-09-12T06:39:03.180Z,13.92
2022-09-12T06:41:32.134Z,14.08
2022-09-12T06:44:01.951Z,14.25
2022-09-12T06:46:31.071Z,14.42
2022-09-12T06:49:00.605Z,14.66
2022-09-12T06:51:29.102Z,14.89
2022-09-12T06:53:57.636Z,15.10
2022-09-12T06:56:27.453Z,15.31
2022-09-12T06:58:57.332Z,15.51
2022-09-12T07:01:28.551Z,15.69
2022-09-12T07:03:57.697Z,15.90
2022-09-12T07:06:31.583Z,16.10
2022-09-12T07:08:59.751Z,16.30
2022-09-12T07:11:29.294Z,16.50
2022-09-12T07:13:57.527Z,16.68
2022-09-12T07:16:26.620Z,16.85
2022-09-12T07:18:55.637Z,17.00
2022-09-12T07:21:23.491Z,17.14
2022-09-12T07:23:52.052Z,17.30
2022-09-12T07:26:20.014Z,17.49
2022-09-12T07:28:52.022Z,17.68
2022-09-12T07:31:20.225Z,17.85
2022-09-12T07:33:54.444Z,18.00
2022-09-12T07:36:25.296Z,18.19
2022-09-12T07:38:57.602Z,18.40
2022-09-12T07:41:27.461Z,18.61
2022-09-12T07:43:56.152Z,18.79
2022-09-12T07:46:24.959Z,18.99
2022-09-12T07:48:55.376Z,19.19
2022-09-12T07:51:23.578Z,19.45
2022-09-12T07:53:51.797Z,19.73
2022-09-12T07:56:21.118Z,20.09
2022-09-12T07:58:49.222Z,20.49
2022-09-12T08:01:18.398Z,20.94
2022-09-12T08:03:47.621Z,21.47
2022-09-12T08:06:20.006Z,21.96
2022-09-12T08:08:48.766Z,22.49
2022-09-12T08:11:18.612Z,22.99
2022-09-12T08:13:49.643Z,23.55
2022-09-12T08:16:22.605Z,24.11
2022-09-12T08:18:51.129Z,24.61
2022-09-12T08:21:22.335Z,25.06
2022-09-12T08:23:54.057Z,25.39
2022-09-12T08:26:22.082Z,25.72
2022-09-12T08:28:50.062Z,26.04
2022-09-12T08:31:19.168Z,26.41
2022-09-12T08:33:46.865Z,26.79
2022-09-12T08:36:16.979Z,27.16
2022-09-12T08:38:47.479Z,27.57
2022-09-12T08:41:24.968Z,28.01
2022-09-12T08:44:13.602Z,28.40
2022-09-12T08:46:51.755Z,28.71
2022-09-12T08:49:26.302Z,28.94
2022-09-12T08:51:55.528Z,29.20
2022-09-12T08:54:28.200Z,29.50
2022-09-12T08:57:02.651Z,29.72
2022-09-12T08:59:36.665Z,29.92
2022-09-12T09:02:15.171Z,30.17
2022-09-12T09:04:51.782Z,30.69
2022-09-12T09:07:39.432Z,31.21
2022-09-12T09:10:23.545Z,31.66
2022-09-12T09:12:58.329Z,32.08
2022-09-12T09:15:45.483Z,32.53
2022-09-12T09:18:19.535Z,33.06
2022-09-12T09:20:52.997Z,33.57
2022-09-12T09:23:24.747Z,33.91
2022-09-12T09:25:56.738Z,34.25
2022-09-12T09:28:29.894Z,34.63
2022-09-12T09:30:58.409Z,34.91
2022-09-12T09:33:29.048Z,35.03
2022-09-12T09:36:14.782Z,35.35
2022-09-12T09:38:49.967Z,35.95
2022-09-12T09:41:36.278Z,36.48
2022-09-12T09:44:04.423Z,37.09
2022-09-12T09:46:33.321Z,37.63
2022-09-12T09:49:03.195Z,38.05
2022-09-12T09:51:36.912Z,38.60
2022-09-12T09:54:12.200Z,39.01
2022-09-12T09:56:42.426Z,39.19
2022-09-12T09:59:12.697Z,39.69
2022-09-12T10:01:46.387Z,40.16
2022-09-12T10:04:21.755Z,40.70
2022-09-12T10:06:52.568Z,41.17
2022-09-12T10:09:25.788Z,41.47
2022-09-12T10:11:56.374Z,41.84
2022-09-12T10:14:38.456Z,42.30
2022-09-12T10:17:33.778Z,42.69
2022-09-12T10:20:21.617Z,43.00
2022-09-12T10:22:50.460Z,43.08
2022-09-12T10:25:20.236Z,43.02
2022-09-12T10:27:55.106Z,42.68
2022-09-12T10:30:24.996Z,42.43
2022-09-12T10:32:54.339Z,42.30
2022-09-12T10:35:23.913Z,42.37
2022-09-12T10:37:55.391Z,42.45
2022-09-12T10:40:26.022Z,42.56
2022-09-12T10:42:56.225Z,43.12
2022-09-12T10:45:27.224Z,43.73
2022-09-12T10:47:58.163Z,43.99
2022-09-12T10:50:29.749Z,43.90
2022-09-12T10:53:14.773Z,43.97
2022-09-12T10:55:48.461Z,43.92
2022-09-12T10:58:32.217Z,43.46
2022-09-12T11:01:10.058Z,43.44
2022-09-12T11:03:59.743Z,43.67
2022-09-12T11:06:36.294Z,43.83
2022-09-12T11:09:10.891Z,43.84
2022-09-12T11:11:54.091Z,43.84
2022-09-12T11:14:35.318Z,43.86
2022-09-12T11:17:06.053Z,43.97
2022-09-12T11:19:50.938Z,43.53
2022-09-12T11:22:32.030Z,43.14
2022-09-12T11:25:08.678Z,42.93
2022-09-12T11:27:50.679Z,42.47
2022-09-12T11:30:19.855Z,41.84
2022-09-12T11:33:00.044Z,40.99
2022-09-12T11:35:30.042Z,39.92
2022-09-12T11:38:21.091Z,39.04
2022-09-12T11:40:54.506Z,38.46
2022-09-12T11:43:30.867Z,37.78
2022-09-12T11:46:07.639Z,37.21
2022-09-12T11:48:44.823Z,36.51
2022-09-12T11:51:19.792Z,35.89
2022-09-12T11:53:59.418Z,35.42
2022-09-12T11:56:27.152Z,34.94
2022-09-12T11:59:02.011Z,34.49
2022-09-12T12:01:41.317Z,34.05
2022-09-12T12:04:13.813Z,33.63
2022-09-12T12:06:52.082Z,33.25
2022-09-12T12:09:19.865Z,32.77
2022-09-12T12:11:52.611Z,32.37
2022-09-12T12:14:24.010Z,32.11
2022-09-12T12:16:52.897Z,31.84
2022-09-12T12:19:33.878Z,31.56
2022-09-12T12:22:18.120Z,31.28
2022-09-12T12:25:05.679Z,31.16
2022-09-12T12:27:49.287Z,31.04
2022-09-12T12:31:00.411Z,30.79
2022-09-12T12:33:55.751Z,30.48
2022-09-12T12:36:40.293Z,30.31
2022-09-12T12:39:45.720Z,30.08
2022-09-12T12:43:04.494Z,29.85
2022-09-12T12:46:12.406Z,29.55
2022-09-12T12:48:52.849Z,29.31
2022-09-12T12:52:01.228Z,29.10
2022-09-12T12:54:35.601Z,29.02
2022-09-12T12:57:18.527Z,28.89
2022-09-12T12:59:50.082Z,28.73
2022-09-12T13:02:24.068Z,28.55
2022-09-12T13:04:52.519Z,28.40
2022-09-12T13:07:28.674Z,28.26
2022-09-12T13:09:57.756Z,28.15
2022-09-12T13:12:27.271Z,27.93
2022-09-12T13:14:58.409Z,27.61
2022-09-12T13:17:35.905Z,27.33
2022-09-12T13:20:27.821Z,27.20
2022-09-12T13:22:58.342Z,27.13
2022-09-12T13:25:30.114Z,27.11
2022-09-12T13:28:07.402Z,27.08
2022-09-12T13:30:37.409Z,27.02
2022-09-12T13:33:21.813Z,26.94
2022-09-12T13:36:08.609Z,26.84
2022-09-12T13:38:48.629Z,26.71
2022-09-12T13:41:37.375Z,26.57
2022-09-12T13:44:05.378Z,26.49
2022-09-12T13:46:35.251Z,26.46
2022-09-12T13:49:11.511Z,26.39
2022-09-12T13:51:39.232Z,26.35
2022-09-12T13:54:08.268Z,26.32
2022-09-12T13:56:48.385Z,26.23
2022-09-12T13:59:15.993Z,26.18
2022-09-12T14:01:45.067Z,26.13
2022-09-12T14:08:28.876Z,25.93
2022-09-12T15:37:44.226Z,23.98
2022-09-12T16:51:11.338Z,22.97
2022-09-12T16:53:40.340Z,22.95
2022-09-12T16:56:08.634Z,22.91
2022-09-12T16:58:41.817Z,22.88
2022-09-12T17:01:11.161Z,22.81
2022-09-12T17:03:39.220Z,22.75
2022-09-12T17:06:09.333Z,22.70
2022-09-12T17:08:40.319Z,22.66
2022-09-12T17:11:11.101Z,22.61
2022-09-12T17:14:03.239Z,22.54
2022-09-12T17:16:28.329Z,22.46
2022-09-12T17:18:56.279Z,22.38
2022-09-12T17:21:23.985Z,22.32
2022-09-12T17:23:52.971Z,22.24
2022-09-12T17:26:20.760Z,22.18
2022-09-12T17:28:48.825Z,22.09
2022-09-12T17:31:17.226Z,21.98
2022-09-12T17:33:45.373Z,21.89
2022-09-12T17:36:15.326Z,21.81
2022-09-12T17:38:44.321Z,21.74
2022-09-12T17:41:21.484Z,21.67
2022-09-12T17:43:51.019Z,21.59
2022-09-12T17:46:19.156Z,21.53
2022-09-12T17:48:46.813Z,21.45
2022-09-12T17:51:16.265Z,21.34
2022-09-12T17:53:44.429Z,21.25
2022-09-12T17:56:12.357Z,21.17
2022-09-12T17:58:41.384Z,21.08
2022-09-12T18:01:30.650Z,20.98
2022-09-12T18:04:00.565Z,20.91
2022-09-12T18:06:29.487Z,20.82
2022-09-12T18:08:59.983Z,20.76
2022-09-12T18:11:27.634Z,20.71
2022-09-12T18:13:56.842Z,20.64
2022-09-12T18:16:24.415Z,20.58
2022-09-12T18:18:52.063Z,20.55
2022-09-12T18:21:20.418Z,20.52
2022-09-12T18:23:48.412Z,20.50
2022-09-12T18:26:16.128Z,20.47
2022-09-12T18:28:45.279Z,20.44
2022-09-12T18:31:16.982Z,20.41
2022-09-12T18:33:45.214Z,20.37
2022-09-12T18:36:14.461Z,20.29
2022-09-12T18:38:42.753Z,20.21
2022-09-12T18:41:12.293Z,20.10
2022-09-12T18:43:40.539Z,20.04
2022-09-12T18:46:10.125Z,19.99
2022-09-12T18:48:39.794Z,19.95
2022-09-12T18:51:09.088Z,19.88
2022-09-12T18:53:37.756Z,19.84
2022-09-12T18:56:08.604Z,19.86
2022-09-12T18:58:36.568Z,19.83
2022-09-12T19:01:12.068Z,19.73
2022-09-12T19:03:41.250Z,19.62
2022-09-12T19:06:11.845Z,19.57
2022-09-12T19:08:40.052Z,19.50
2022-09-12T19:11:08.789Z,19.39
2022-09-12T19:13:38.753Z,19.27
2022-09-12T19:16:09.216Z,19.15
2022-09-12T19:18:37.948Z,19.01
2022-09-12T19:21:08.188Z,18.89
2022-09-12T19:23:36.503Z,18.78
2022-09-12T19:26:06.737Z,18.73
2022-09-12T19:28:34.801Z,18.68
2022-09-12T19:31:06.325Z,18.61
2022-09-12T19:33:34.131Z,18.52
2022-09-12T19:36:04.359Z,18.44
2022-09-12T19:38:38.820Z,18.36
2022-09-12T19:41:12.324Z,18.33
2022-09-12T19:43:42.633Z,18.32
2022-09-12T19:46:27.829Z,18.34
2022-09-12T19:49:14.090Z,18.36
2022-09-12T19:51:41.890Z,18.30
2022-09-12T20:05:15.134Z,17.98
2022-09-12T20:08:06.411Z,17.90
2022-09-12T20:11:00.264Z,17.88
2022-09-12T20:13:48.999Z,17.91
2022-09-12T20:17:24.091Z,17.92
2022-09-12T20:20:43.626Z,17.89
2022-09-12T20:26:33.592Z,17.86
2022-09-12T20:29:18.921Z,17.83
2022-09-12T20:32:23.592Z,17.81
2022-09-12T20:39:14.215Z,17.81
2022-09-12T20:51:28.443Z,17.67
2022-09-12T21:07:46.933Z,17.64
2022-09-12T21:13:41.802Z,17.56
2022-09-12T21:45:01.015Z,17.35
2022-09-12T21:51:29.761Z,17.30
2022-09-12T22:05:52.017Z,17.27
2022-09-12T22:08:34.625Z,17.25
2022-09-12T22:11:20.783Z,17.25
2022-09-12T22:14:05.633Z,17.24
2022-09-12T22:16:46.284Z,17.25
2022-09-12T22:19:28.420Z,17.27
2022-09-12T22:22:24.643Z,17.29
2022-09-12T22:24:53.645Z,17.27
2022-09-12T22:27:21.922Z,17.27
2022-09-12T22:29:52.113Z,17.25
2022-09-12T22:32:20.739Z,17.23
2022-09-12T22:34:49.153Z,17.24
2022-09-12T22:37:18.884Z,17.21
2022-09-12T22:39:47.053Z,17.19
2022-09-12T22:42:15.690Z,17.18
2022-09-12T22:44:44.173Z,17.21
2022-09-12T22:47:12.231Z,17.25
2022-09-12T22:49:40.851Z,17.24
2022-09-12T22:52:08.874Z,17.26
2022-09-12T22:54:38.373Z,17.25
2022-09-12T22:57:07.314Z,17.23
2022-09-12T22:59:35.218Z,17.23
2022-09-12T23:02:03.624Z,17.20
2022-09-12T23:04:32.128Z,17.17
2022-09-12T23:07:00.450Z,17.14
2022-09-12T23:09:32.060Z,17.10
2022-09-12T23:12:04.877Z,17.06
2022-09-12T23:14:32.782Z,17.04
2022-09-12T23:17:00.827Z,17.04
2022-09-12T23:19:28.545Z,17.03
2022-09-12T23:21:56.433Z,17.05
2022-09-12T23:24:24.289Z,17.05
2022-09-12T23:26:51.909Z,17.07
2022-09-12T23:29:21.460Z,17.14
2022-09-12T23:31:49.241Z,17.14
2022-09-12T23:34:17.822Z,17.14
2022-09-12T23:36:48.957Z,17.13
2022-09-12T23:39:16.974Z,17.14
2022-09-12T23:41:45.087Z,17.14
2022-09-12T23:44:13.306Z,17.13
2022-09-12T23:46:42.437Z,17.11
2022-09-12T23:49:11.296Z,17.07
2022-09-12T23:51:40.012Z,17.05
2022-09-12T23:54:08.798Z,17.06
2022-09-12T23:56:37.116Z,17.05
2022-09-12T23:59:05.195Z,17.03
